createdAt,value
2018-05-10T00:01:50.759Z,6.40
2018-05-10T00:04:20.351Z,5.33
2018-05-10T00:06:48.701Z,5.93
2018-05-10T00:09:16.396Z,6.50
2018-05-10T00:11:46.759Z,6.37
2018-05-10T00:14:17.741Z,5.57
2018-05-10T00:16:46.215Z,5.77
2018-05-10T00:19:13.892Z,6.13
2018-05-10T00:21:41.659Z,5.80
2018-05-10T00:24:12.805Z,4.90
2018-05-10T00:26:40.653Z,4.83
2018-05-10T00:29:09.961Z,5.40
2018-05-10T00:31:39.351Z,5.03
2018-05-10T00:34:07.149Z,6.13
2018-05-10T00:36:34.814Z,5.50
2018-05-10T00:39:06.847Z,5.50
2018-05-10T00:41:36.188Z,5.53
2018-05-10T00:44:04.079Z,6.23
2018-05-10T00:46:31.613Z,6.77
2018-05-10T00:48:59.155Z,5.83
2018-05-10T00:51:26.659Z,6.07
2018-05-10T00:53:54.151Z,6.30
2018-05-10T00:56:21.634Z,6.03
2018-05-10T00:58:49.163Z,5.87
2018-05-10T01:01:16.640Z,5.70
2018-05-10T01:03:44.129Z,5.63
2018-05-10T01:06:17.676Z,5.77
2018-05-10T01:08:45.155Z,6.60
2018-05-10T01:11:12.669Z,5.77
2018-05-10T01:13:40.159Z,6.60
2018-05-10T01:29:32.454Z,6.40
2018-05-10T01:31:59.934Z,6.70
2018-05-10T01:34:27.440Z,6.20
2018-05-10T01:36:54.933Z,6.50
2018-05-10T01:39:22.487Z,5.90
2018-05-10T01:41:56.088Z,6.13
2018-05-10T01:44:23.654Z,6.77
2018-05-10T01:46:51.154Z,5.70
2018-05-10T01:49:18.642Z,6.77
2018-05-10T01:51:46.136Z,6.57
2018-05-10T01:54:19.466Z,6.03
2018-05-10T01:56:47.076Z,6.23
2018-05-10T01:59:14.640Z,6.40
2018-05-10T02:01:42.155Z,6.67
2018-05-10T02:04:09.756Z,7.10
2018-05-10T02:06:37.231Z,5.80
2018-05-10T02:09:04.735Z,6.27
2018-05-10T02:11:32.223Z,5.50
2018-05-10T02:13:59.787Z,6.97
2018-05-10T02:16:27.267Z,7.30
2018-05-10T02:18:54.767Z,6.97
2018-05-10T02:21:22.260Z,6.67
2018-05-10T02:23:49.773Z,6.33
2018-05-10T02:26:17.254Z,5.87
2018-05-10T02:28:48.391Z,5.90
2018-05-10T02:31:15.980Z,6.30
2018-05-10T02:33:43.491Z,5.43
2018-05-10T02:36:11.091Z,6.30
2018-05-10T02:38:38.586Z,6.60
2018-05-10T02:41:09.188Z,5.63
2018-05-10T02:43:36.660Z,5.80
2018-05-10T02:46:05.981Z,6.73
2018-05-10T02:48:33.452Z,6.33
2018-05-10T02:51:01.133Z,5.90
2018-05-10T02:53:28.644Z,6.40
2018-05-10T02:55:56.144Z,6.60
2018-05-10T02:58:23.736Z,6.50
2018-05-10T03:00:51.214Z,7.03
2018-05-10T03:03:18.766Z,6.87
2018-05-10T03:05:46.252Z,6.50
2018-05-10T03:08:13.774Z,6.43
2018-05-10T03:10:41.274Z,7.10
2018-05-10T03:13:18.444Z,6.70
2018-05-10T03:15:45.914Z,6.60
2018-05-10T03:18:13.433Z,6.00
2018-05-10T03:20:41.872Z,6.70
2018-05-10T03:23:09.383Z,6.47
2018-05-10T03:25:36.896Z,6.77
2018-05-10T03:28:04.396Z,7.17
2018-05-10T03:30:31.917Z,6.50
2018-05-10T03:33:01.228Z,7.40
2018-05-10T03:35:28.731Z,7.33
2018-05-10T03:37:56.211Z,7.57
2018-05-10T03:40:23.731Z,7.47
2018-05-10T03:42:51.245Z,7.80
2018-05-10T03:45:18.777Z,6.97
2018-05-10T03:47:46.278Z,6.57
2018-05-10T03:50:13.828Z,6.90
2018-05-10T03:52:41.334Z,6.73
2018-05-10T03:55:08.936Z,7.00
2018-05-10T03:57:36.452Z,7.97
2018-05-10T04:00:03.937Z,7.93
2018-05-10T04:02:43.260Z,7.20
2018-05-10T04:05:18.566Z,6.77
2018-05-10T04:07:58.133Z,6.70
2018-05-10T04:10:43.053Z,7.03
2018-05-10T04:13:10.557Z,7.67
2018-05-10T04:15:38.059Z,7.70
2018-05-10T04:18:05.605Z,7.57
2018-05-10T04:20:33.086Z,7.37
2018-05-10T04:23:00.595Z,7.80
2018-05-10T04:25:28.080Z,8.33
2018-05-10T04:27:59.455Z,8.27
2018-05-10T04:30:27.029Z,8.43
2018-05-10T04:32:54.525Z,8.97
2018-05-10T04:35:22.033Z,8.43
2018-05-10T04:37:49.535Z,8.47
2018-05-10T04:40:20.235Z,7.17
2018-05-10T04:42:47.723Z,7.53
2018-05-10T04:45:19.147Z,7.43
2018-05-10T04:47:46.635Z,7.63
2018-05-10T04:50:14.158Z,8.20
2018-05-10T04:52:41.645Z,7.63
2018-05-10T04:55:09.135Z,7.20
2018-05-10T04:57:36.637Z,7.60
2018-05-10T05:00:04.233Z,7.47
2018-05-10T05:02:31.753Z,8.50
2018-05-10T05:04:59.311Z,8.13
2018-05-10T05:07:26.813Z,7.63
2018-05-10T05:09:54.321Z,7.70
2018-05-10T05:12:21.831Z,8.10
2018-05-10T05:14:49.335Z,7.37
2018-05-10T05:17:18.637Z,7.50
2018-05-10T05:19:46.201Z,7.77
2018-05-10T05:22:13.708Z,6.90
2018-05-10T05:24:41.216Z,7.50
2018-05-10T05:27:08.722Z,6.50
2018-05-10T05:29:36.341Z,6.80
2018-05-10T05:32:03.841Z,6.80
2018-05-10T05:34:31.343Z,7.40
2018-05-10T05:36:58.874Z,6.80
2018-05-10T05:39:26.375Z,7.23
2018-05-10T05:41:53.933Z,7.13
2018-05-10T05:44:23.815Z,6.90
2018-05-10T05:46:51.330Z,6.67
2018-05-10T05:51:54.524Z,7.40
2018-05-10T05:54:27.870Z,7.47
2018-05-10T05:56:55.474Z,6.80
2018-05-10T05:59:22.967Z,6.50
2018-05-10T06:01:50.467Z,6.90
2018-05-10T06:04:17.991Z,7.00
2018-05-10T06:06:45.477Z,6.27
2018-05-10T06:09:13.009Z,6.10
2018-05-10T06:11:40.519Z,6.43
2018-05-10T06:14:08.042Z,6.33
2018-05-10T06:16:35.532Z,5.80
2018-05-10T06:19:03.043Z,6.13
2018-05-10T06:21:30.563Z,5.67
2018-05-10T06:23:58.064Z,5.80
2018-05-10T06:26:25.573Z,5.13
2018-05-10T06:28:53.066Z,5.43
2018-05-10T06:31:20.600Z,5.50
2018-05-10T06:33:48.083Z,5.40
2018-05-10T06:36:15.703Z,5.10
2018-05-10T06:38:44.061Z,5.10
2018-05-10T06:41:11.579Z,5.70
2018-05-10T06:43:39.919Z,5.13
2018-05-10T06:46:07.480Z,5.00
2018-05-10T06:48:34.984Z,4.40
2018-05-10T06:51:02.539Z,5.00
2018-05-10T06:53:30.079Z,4.87
2018-05-10T06:55:57.586Z,5.20
2018-05-10T06:58:25.121Z,5.17
2018-05-10T07:00:52.612Z,5.13
2018-05-10T07:03:20.197Z,4.80
2018-05-10T07:05:47.671Z,5.03
2018-05-10T07:08:24.844Z,4.90
2018-05-10T07:10:52.348Z,4.80
2018-05-10T07:13:19.829Z,4.50
2018-05-10T07:15:47.383Z,4.73
2018-05-10T07:18:14.914Z,4.40
2018-05-10T07:20:42.494Z,4.20
2018-05-10T07:23:16.189Z,4.70
2018-05-10T07:25:43.697Z,4.33
2018-05-10T07:28:11.249Z,4.27
2018-05-10T07:30:39.492Z,4.40
2018-05-10T07:33:07.000Z,4.63
2018-05-10T07:35:34.524Z,4.43
2018-05-10T07:38:02.022Z,4.70
2018-05-10T07:40:29.552Z,4.83
2018-05-10T07:42:57.092Z,4.57
2018-05-10T07:45:24.594Z,4.60
2018-05-10T07:47:52.136Z,4.80
2018-05-10T07:50:19.650Z,4.07
2018-05-10T07:52:47.354Z,4.10
2018-05-10T07:55:21.296Z,4.60
2018-05-10T07:57:52.137Z,4.37
2018-05-10T08:00:20.737Z,4.17
2018-05-10T08:02:48.256Z,4.47
2018-05-10T08:05:15.797Z,4.77
2018-05-10T08:07:43.300Z,4.87
2018-05-10T08:10:10.858Z,4.33
2018-05-10T08:12:38.371Z,4.47
2018-05-10T08:15:05.898Z,4.50
2018-05-10T08:17:33.385Z,4.97
2018-05-10T08:20:00.949Z,3.90
2018-05-10T08:22:28.456Z,3.90
2018-05-10T08:24:55.993Z,3.83
2018-05-10T08:27:23.507Z,4.30
2018-05-10T08:29:51.092Z,4.27
2018-05-10T08:32:31.569Z,4.70
2018-05-10T08:34:59.105Z,4.67
2018-05-10T08:37:26.629Z,4.60
2018-05-10T08:39:54.225Z,4.30
2018-05-10T08:42:21.786Z,5.10
2018-05-10T08:44:49.276Z,4.30
2018-05-10T08:47:16.804Z,4.47
2018-05-10T08:49:44.351Z,5.37
2018-05-10T08:52:11.918Z,4.70
2018-05-10T08:54:39.448Z,5.13
2018-05-10T08:57:06.949Z,4.00
2018-05-10T09:02:32.914Z,5.23
2018-05-10T09:05:10.066Z,4.90
2018-05-10T09:07:39.549Z,4.57
2018-05-10T09:10:17.054Z,4.20
2018-05-10T09:13:06.128Z,4.50
2018-05-10T09:15:34.761Z,4.40
2018-05-10T09:18:04.778Z,4.73
2018-05-10T09:20:32.384Z,4.47
2018-05-10T09:23:04.918Z,3.87
2018-05-10T09:25:34.764Z,3.70
2018-05-10T09:28:02.266Z,3.90
2018-05-10T09:30:30.425Z,4.10
2018-05-10T09:33:00.553Z,4.50
2018-05-10T09:35:28.157Z,3.67
2018-05-10T09:38:12.591Z,4.63
2018-05-10T09:40:40.105Z,4.50
2018-05-10T09:43:08.050Z,5.00
2018-05-10T09:45:39.600Z,3.70
2018-05-10T09:48:07.104Z,5.00
2018-05-10T09:50:34.697Z,4.23
2018-05-10T09:53:02.304Z,4.97
2018-05-10T09:55:37.493Z,4.20
2018-05-10T09:58:05.081Z,4.00
2018-05-10T10:00:34.006Z,4.07
2018-05-10T10:03:04.698Z,3.83
2018-05-10T10:05:36.034Z,4.33
2018-05-10T10:08:05.094Z,4.67
2018-05-10T10:13:08.473Z,3.80
2018-05-10T10:18:11.498Z,4.33
2018-05-10T10:20:40.460Z,3.63
2018-05-10T10:23:07.949Z,4.30
2018-05-10T10:25:41.573Z,5.33
2018-05-10T10:28:18.042Z,8.83
2018-05-10T10:30:49.657Z,4.83
2018-05-10T10:33:17.443Z,4.10
2018-05-10T10:35:52.662Z,3.90
2018-05-10T10:38:21.786Z,4.17
2018-05-10T10:40:49.951Z,3.50
2018-05-10T10:48:47.420Z,3.23
2018-05-10T10:51:18.577Z,3.60
2018-05-10T10:53:54.015Z,3.70
2018-05-10T10:56:25.740Z,3.63
2018-05-10T10:59:00.548Z,3.90
2018-05-10T11:01:42.943Z,3.40
2018-05-10T11:04:14.271Z,3.30
2018-05-10T11:09:34.350Z,3.80
2018-05-10T11:12:01.885Z,3.50
2018-05-10T11:14:29.372Z,3.60
2018-05-10T11:16:58.682Z,3.50
2018-05-10T11:19:26.232Z,3.47
2018-05-10T11:22:00.689Z,3.90
2018-05-10T11:24:29.855Z,3.67
2018-05-10T11:26:59.761Z,2.90
2018-05-10T11:56:47.169Z,3.47
2018-05-10T11:59:14.711Z,3.30
2018-05-10T12:01:45.065Z,3.47
2018-05-10T12:04:12.628Z,3.23
2018-05-10T12:06:40.268Z,3.60
2018-05-10T12:09:07.798Z,3.03
2018-05-10T12:11:35.359Z,3.47
2018-05-10T12:14:03.038Z,3.53
2018-05-10T12:16:31.332Z,3.20
2018-05-10T12:18:58.865Z,3.33
2018-05-10T12:21:26.423Z,3.30
2018-05-10T12:23:55.541Z,3.60
2018-05-10T12:26:23.128Z,3.30
2018-05-10T12:28:50.675Z,3.60
2018-05-10T12:31:18.270Z,3.20
2018-05-10T12:33:48.391Z,3.40
2018-05-10T12:36:15.942Z,2.97
2018-05-10T12:38:43.508Z,3.30
2018-05-10T12:41:11.044Z,3.27
2018-05-10T12:43:38.717Z,3.13
2018-05-10T12:46:06.247Z,2.87
2018-05-10T12:48:33.936Z,2.60
2018-05-10T12:54:04.620Z,3.17
2018-05-10T12:56:32.366Z,3.50
2018-05-10T12:58:59.984Z,3.53
2018-05-10T13:01:27.539Z,3.97
2018-05-10T13:03:55.224Z,3.50
2018-05-10T13:06:22.761Z,4.07
2018-05-10T13:08:50.350Z,3.57
2018-05-10T13:11:17.909Z,3.10
2018-05-10T13:13:45.676Z,3.30
2018-05-10T13:16:13.227Z,3.17
2018-05-10T13:18:40.786Z,3.33
2018-05-10T13:21:08.365Z,3.60
2018-05-10T13:23:35.904Z,3.20
2018-05-10T13:26:03.467Z,3.57
2018-05-10T13:28:31.004Z,3.07
2018-05-10T13:30:59.601Z,3.30
2018-05-10T13:33:29.346Z,3.40
2018-05-10T13:35:56.916Z,3.10
2018-05-10T13:38:24.529Z,3.20
2018-05-10T13:40:53.890Z,3.10
2018-05-10T13:43:21.441Z,3.10
2018-05-10T13:45:49.022Z,3.13
2018-05-10T13:48:18.196Z,3.37
2018-05-10T13:50:45.729Z,3.70
2018-05-10T13:53:13.377Z,3.80
2018-05-10T13:55:41.666Z,3.23
2018-05-10T13:58:09.222Z,2.93
2018-05-10T14:00:36.743Z,2.50
2018-05-10T14:03:04.380Z,2.70
2018-05-10T14:05:32.000Z,2.30
2018-05-10T14:07:59.601Z,3.40
2018-05-10T14:10:27.135Z,3.30
2018-05-10T14:12:54.667Z,2.87
2018-05-10T14:15:22.230Z,3.10
2018-05-10T14:17:49.917Z,2.80
2018-05-10T14:20:17.791Z,2.70
2018-05-10T14:22:45.316Z,2.50
2018-05-10T14:25:12.918Z,2.60
2018-05-10T14:27:40.463Z,3.30
2018-05-10T14:30:08.077Z,2.80
2018-05-10T14:32:36.560Z,3.00
2018-05-10T14:35:04.314Z,2.90
2018-05-10T14:37:31.857Z,3.83
2018-05-10T14:40:03.114Z,4.27
2018-05-10T14:42:30.941Z,3.83
2018-05-10T14:44:58.670Z,4.17
2018-05-10T14:47:26.640Z,4.40
2018-05-10T14:49:54.271Z,3.97
2018-05-10T14:52:22.015Z,4.40
2018-05-10T14:54:49.551Z,3.90
2018-05-10T14:57:17.188Z,4.43
2018-05-10T14:59:44.768Z,4.50
2018-05-10T15:02:12.759Z,4.60
2018-05-10T15:04:40.823Z,4.93
2018-05-10T15:07:09.427Z,4.60
2018-05-10T15:09:37.015Z,4.90
2018-05-10T15:12:04.869Z,4.13
2018-05-10T15:14:32.438Z,4.20
2018-05-10T15:16:59.986Z,3.40
2018-05-10T15:19:27.535Z,3.77
2018-05-10T15:21:57.773Z,3.43
2018-05-10T15:24:25.721Z,3.80
2018-05-10T15:26:55.131Z,4.03
2018-05-10T15:29:23.416Z,4.00
2018-05-10T15:31:53.730Z,3.70
2018-05-10T15:34:21.639Z,3.93
2018-05-10T15:36:49.457Z,3.53
2018-05-10T15:39:18.913Z,3.50
2018-05-10T15:41:47.920Z,3.80
2018-05-10T15:44:15.579Z,3.47
2018-05-10T15:46:43.150Z,4.00
2018-05-10T15:49:12.789Z,3.50
2018-05-10T15:51:40.421Z,3.80
2018-05-10T15:54:09.640Z,3.70
2018-05-10T15:56:37.203Z,3.43
2018-05-10T15:59:04.738Z,3.57
2018-05-10T16:01:32.275Z,3.30
2018-05-10T16:03:59.947Z,3.37
2018-05-10T16:06:27.530Z,3.70
2018-05-10T16:08:55.095Z,4.20
2018-05-10T16:11:22.774Z,3.90
2018-05-10T16:13:50.396Z,3.17
2018-05-10T16:16:17.931Z,3.60
2018-05-10T16:18:45.527Z,3.40
2018-05-10T16:21:13.062Z,3.20
2018-05-10T16:23:42.418Z,2.77
2018-05-10T16:26:09.969Z,3.63
2018-05-10T16:28:37.539Z,3.53
2018-05-10T16:31:05.812Z,3.20
2018-05-10T16:33:33.410Z,3.57
2018-05-10T16:36:01.220Z,2.90
2018-05-10T16:38:28.763Z,3.40
2018-05-10T16:40:56.456Z,3.10
2018-05-10T16:43:24.101Z,3.23
2018-05-10T16:45:51.650Z,2.70
2018-05-10T16:48:19.214Z,3.40
2018-05-10T16:50:50.574Z,3.20
2018-05-10T16:53:18.161Z,3.30
2018-05-10T16:55:45.754Z,3.60
2018-05-10T16:58:13.380Z,3.10
2018-05-10T17:00:41.140Z,3.13
2018-05-10T17:03:08.777Z,2.87
2018-05-10T17:05:36.382Z,3.10
2018-05-10T17:08:04.062Z,2.80
2018-05-10T17:10:32.324Z,2.83
2018-05-10T17:13:01.712Z,2.87
2018-05-10T17:15:30.055Z,3.13
2018-05-10T17:17:57.615Z,2.97
2018-05-10T17:20:25.161Z,3.77
2018-05-10T17:22:52.753Z,3.37
2018-05-10T17:25:20.451Z,3.77
2018-05-10T17:27:48.034Z,3.10
2018-05-10T17:30:15.731Z,3.13
2018-05-10T17:32:43.296Z,3.40
2018-05-10T17:35:10.818Z,3.33
2018-05-10T17:37:40.126Z,3.30
2018-05-10T17:40:07.710Z,3.40
2018-05-10T17:42:37.145Z,3.10
2018-05-10T17:45:06.059Z,3.70
2018-05-10T17:47:33.712Z,3.40
2018-05-10T17:50:01.618Z,3.10
2018-05-10T17:52:29.457Z,2.90
2018-05-10T17:54:57.109Z,3.70
2018-05-10T17:57:24.688Z,3.23
2018-05-10T17:59:52.210Z,2.90
2018-05-10T18:02:22.439Z,3.70
2018-05-10T18:04:50.003Z,4.00
2018-05-10T18:07:17.585Z,3.73
2018-05-10T18:09:46.501Z,4.13
2018-05-10T18:12:14.172Z,3.70
2018-05-10T18:14:41.856Z,4.03
2018-05-10T18:17:11.133Z,4.20
2018-05-10T18:19:38.720Z,4.50
2018-05-10T18:22:06.260Z,3.97
2018-05-10T18:24:34.653Z,4.23
2018-05-10T18:27:02.298Z,3.10
2018-05-10T18:29:29.857Z,3.30
2018-05-10T18:31:57.497Z,2.63
2018-05-10T18:34:24.405Z,3.23
2018-05-10T18:36:52.931Z,3.00
2018-05-10T18:39:20.676Z,3.30
2018-05-10T18:41:50.016Z,3.10
2018-05-10T18:44:17.591Z,3.20
2018-05-10T18:46:45.201Z,2.97
2018-05-10T19:02:13.677Z,3.00
2018-05-10T19:04:41.716Z,3.30
2018-05-10T19:07:09.270Z,3.10
2018-05-10T19:09:37.632Z,3.40
2018-05-10T19:12:07.038Z,2.83
2018-05-10T19:14:34.571Z,3.20
2018-05-10T19:17:02.155Z,3.50
2018-05-10T19:19:29.715Z,2.57
2018-05-10T19:21:57.311Z,3.17
2018-05-10T19:24:25.503Z,3.20
2018-05-10T19:26:53.058Z,2.73
2018-05-10T19:29:20.609Z,3.40
2018-05-10T19:31:48.224Z,3.57
2018-05-10T19:34:18.353Z,3.63
2018-05-10T19:36:46.965Z,3.70
2018-05-10T19:39:14.539Z,4.70
2018-05-10T19:41:42.097Z,4.83
2018-05-10T19:44:09.719Z,5.70
2018-05-10T19:46:37.279Z,5.57
2018-05-10T19:49:05.382Z,6.87
2018-05-10T19:51:32.918Z,7.17
2018-05-10T19:54:00.479Z,7.63
2018-05-10T19:56:28.053Z,9.00
2018-05-10T19:58:55.623Z,9.07
2018-05-10T20:01:25.069Z,10.23
2018-05-10T20:03:54.801Z,9.40
2018-05-10T20:06:22.371Z,9.13
2018-05-10T20:08:49.927Z,9.00
2018-05-10T20:11:17.635Z,9.50
2018-05-10T20:13:45.267Z,8.10
2018-05-10T20:16:12.794Z,8.33
2018-05-10T20:18:40.424Z,8.30
2018-05-10T20:21:08.934Z,7.13
2018-05-10T20:23:36.459Z,6.20
2018-05-10T20:26:04.147Z,5.10
2018-05-10T20:28:32.756Z,5.70
2018-05-10T20:31:02.063Z,5.70
2018-05-10T20:33:29.703Z,5.90
2018-05-10T20:35:57.229Z,6.03
2018-05-10T20:38:24.774Z,5.17
2018-05-10T20:40:52.450Z,6.47
2018-05-10T20:43:20.000Z,5.23
2018-05-10T20:45:47.635Z,5.03
2018-05-10T20:48:15.145Z,4.93
2018-05-10T20:50:44.608Z,4.60
2018-05-10T20:53:12.114Z,4.47
2018-05-10T20:55:40.371Z,4.90
2018-05-10T20:58:08.021Z,4.50
2018-05-10T21:00:36.365Z,5.10
2018-05-10T21:03:03.927Z,4.33
2018-05-10T21:05:31.479Z,4.90
2018-05-10T21:07:59.067Z,5.00
2018-05-10T21:10:26.617Z,4.80
2018-05-10T21:12:56.399Z,5.00
2018-05-10T21:15:24.084Z,4.93
2018-05-10T21:17:51.689Z,5.10
2018-05-10T21:20:19.222Z,5.20
2018-05-10T21:22:46.905Z,5.67
2018-05-10T21:25:15.494Z,5.47
2018-05-10T21:27:43.161Z,6.27
2018-05-10T21:30:10.727Z,5.67
2018-05-10T21:32:38.305Z,6.27
2018-05-10T21:35:05.887Z,6.97
2018-05-10T21:37:35.030Z,7.57
2018-05-10T21:40:02.725Z,6.70
2018-05-10T21:42:30.253Z,6.17
2018-05-10T21:44:57.814Z,6.77
2018-05-10T21:47:25.358Z,7.17
2018-05-10T21:50:01.859Z,8.33
2018-05-10T21:52:29.513Z,8.40
2018-05-10T21:54:57.152Z,6.93
2018-05-10T21:57:24.701Z,7.73
2018-05-10T21:59:52.235Z,9.30
2018-05-10T22:02:20.770Z,8.23
2018-05-10T22:04:48.406Z,8.90
2018-05-10T22:07:15.959Z,8.53
2018-05-10T22:09:43.497Z,9.40
2018-05-10T22:12:11.157Z,9.20
2018-05-10T22:14:38.668Z,10.20
2018-05-10T22:17:06.245Z,9.90
2018-05-10T22:19:33.899Z,11.07
2018-05-10T22:22:02.481Z,12.00
2018-05-10T22:24:30.132Z,11.60
2018-05-10T22:26:58.888Z,12.30
2018-05-10T22:29:26.587Z,11.33
2018-05-10T22:31:54.113Z,10.40
2018-05-10T22:34:21.810Z,11.30
2018-05-10T22:36:49.471Z,10.63
2018-05-10T22:39:17.043Z,11.90
2018-05-10T22:41:44.571Z,10.40
2018-05-10T22:44:12.875Z,10.40
2018-05-10T22:46:40.651Z,10.00
2018-05-10T22:49:08.183Z,10.70
2018-05-10T22:51:37.469Z,9.93
2018-05-10T22:54:05.033Z,9.97
2018-05-10T22:56:32.591Z,10.07
2018-05-10T22:59:00.106Z,9.80
2018-05-10T23:01:28.698Z,8.90
2018-05-10T23:03:56.279Z,8.83
2018-05-10T23:06:23.859Z,7.80
2018-05-10T23:08:51.391Z,7.77
2018-05-10T23:11:18.961Z,8.10
2018-05-10T23:13:46.508Z,8.03
2018-05-10T23:16:14.205Z,7.10
2018-05-10T23:18:41.843Z,6.50
2018-05-10T23:21:09.507Z,7.40
2018-05-10T23:23:37.131Z,6.33
2018-05-10T23:26:04.769Z,6.17
2018-05-10T23:28:32.408Z,5.90
2018-05-10T23:30:59.935Z,5.43
2018-05-10T23:33:27.822Z,6.13
2018-05-10T23:35:59.270Z,6.10
2018-05-10T23:38:26.968Z,5.90
2018-05-10T23:40:54.490Z,5.60
2018-05-10T23:43:22.017Z,6.20
2018-05-10T23:45:49.651Z,5.97
2018-05-10T23:48:17.169Z,5.50
2018-05-10T23:50:45.491Z,5.50
2018-05-10T23:53:13.032Z,5.80
2018-05-10T23:55:40.599Z,6.20
2018-05-10T23:58:08.116Z,6.00
